sensor_id;sensor_type;location;lat;lon;timestamp;temperature;humidity
5176;DHT22;2607;50.934;6.934;2022-07-17T00:00:00;18.50;79.90
5176;DHT22;2607;50.934;6.934;2022-07-17T00:02:25;18.50;80.20
5176;DHT22;2607;50.934;6.934;2022-07-17T00:04:51;18.40;80.20
5176;DHT22;2607;50.934;6.934;2022-07-17T00:07:17;18.40;80.70
5176;DHT22;2607;50.934;6.934;2022-07-17T00:09:42;18.40;80.90
5176;DHT22;2607;50.934;6.934;2022-07-17T00:12:08;18.40;81.10
5176;DHT22;2607;50.934;6.934;2022-07-17T00:14:34;18.30;81.20
5176;DHT22;2607;50.934;6.934;2022-07-17T00:16:59;18.30;81.30
5176;DHT22;2607;50.934;6.934;2022-07-17T00:19:25;18.30;81.70
5176;DHT22;2607;50.934;6.934;2022-07-17T00:21:51;18.20;81.90
5176;DHT22;2607;50.934;6.934;2022-07-17T00:24:17;18.20;82.30
5176;DHT22;2607;50.934;6.934;2022-07-17T00:26:47;18.20;82.70
5176;DHT22;2607;50.934;6.934;2022-07-17T00:29:14;18.10;83.00
5176;DHT22;2607;50.934;6.934;2022-07-17T00:31:39;18.10;83.20
5176;DHT22;2607;50.934;6.934;2022-07-17T00:34:05;18.10;83.50
5176;DHT22;2607;50.934;6.934;2022-07-17T00:36:30;18.10;83.60
5176;DHT22;2607;50.934;6.934;2022-07-17T00:38:56;18.10;83.90
5176;DHT22;2607;50.934;6.934;2022-07-17T00:41:22;18.10;84.10
5176;DHT22;2607;50.934;6.934;2022-07-17T00:43:47;18.10;85.10
5176;DHT22;2607;50.934;6.934;2022-07-17T00:46:13;18.00;84.50
5176;DHT22;2607;50.934;6.934;2022-07-17T00:48:39;18.00;84.90
5176;DHT22;2607;50.934;6.934;2022-07-17T00:51:04;17.90;85.30
5176;DHT22;2607;50.934;6.934;2022-07-17T00:53:33;17.90;85.90
5176;DHT22;2607;50.934;6.934;2022-07-17T00:56:04;17.90;86.50
5176;DHT22;2607;50.934;6.934;2022-07-17T00:58:34;17.80;87.00
5176;DHT22;2607;50.934;6.934;2022-07-17T01:01:03;17.80;87.60
5176;DHT22;2607;50.934;6.934;2022-07-17T01:03:31;17.80;87.90
5176;DHT22;2607;50.934;6.934;2022-07-17T01:05:57;17.70;88.00
5176;DHT22;2607;50.934;6.934;2022-07-17T01:08:22;17.70;88.30
5176;DHT22;2607;50.934;6.934;2022-07-17T01:10:48;17.60;88.60
5176;DHT22;2607;50.934;6.934;2022-07-17T01:13:14;17.60;89.00
5176;DHT22;2607;50.934;6.934;2022-07-17T01:15:41;17.60;89.50
5176;DHT22;2607;50.934;6.934;2022-07-17T01:18:09;17.60;89.70
5176;DHT22;2607;50.934;6.934;2022-07-17T01:20:36;17.50;90.00
5176;DHT22;2607;50.934;6.934;2022-07-17T01:23:02;17.50;90.20
5176;DHT22;2607;50.934;6.934;2022-07-17T01:25:28;17.50;90.40
5176;DHT22;2607;50.934;6.934;2022-07-17T01:27:54;17.50;90.50
5176;DHT22;2607;50.934;6.934;2022-07-17T01:30:19;17.40;90.60
5176;DHT22;2607;50.934;6.934;2022-07-17T01:32:45;17.40;90.80
5176;DHT22;2607;50.934;6.934;2022-07-17T01:35:13;17.40;90.90
5176;DHT22;2607;50.934;6.934;2022-07-17T01:37:40;17.30;91.00
5176;DHT22;2607;50.934;6.934;2022-07-17T01:40:07;17.30;91.00
5176;DHT22;2607;50.934;6.934;2022-07-17T01:42:33;17.30;91.20
5176;DHT22;2607;50.934;6.934;2022-07-17T01:44:58;17.20;91.30
5176;DHT22;2607;50.934;6.934;2022-07-17T01:47:24;17.20;91.40
5176;DHT22;2607;50.934;6.934;2022-07-17T01:49:53;17.10;91.50
5176;DHT22;2607;50.934;6.934;2022-07-17T01:52:19;17.10;91.60
5176;DHT22;2607;50.934;6.934;2022-07-17T01:54:45;17.10;91.70
5176;DHT22;2607;50.934;6.934;2022-07-17T01:57:11;17.00;91.70
5176;DHT22;2607;50.934;6.934;2022-07-17T01:59:38;17.00;92.00
5176;DHT22;2607;50.934;6.934;2022-07-17T02:02:04;16.90;92.10
5176;DHT22;2607;50.934;6.934;2022-07-17T02:04:34;16.90;92.30
5176;DHT22;2607;50.934;6.934;2022-07-17T02:07:00;16.80;92.40
5176;DHT22;2607;50.934;6.934;2022-07-17T02:09:26;16.80;92.70
5176;DHT22;2607;50.934;6.934;2022-07-17T02:11:52;16.80;92.80
5176;DHT22;2607;50.934;6.934;2022-07-17T02:14:18;16.80;93.00
5176;DHT22;2607;50.934;6.934;2022-07-17T02:16:43;16.70;93.40
5176;DHT22;2607;50.934;6.934;2022-07-17T02:19:09;16.70;93.50
5176;DHT22;2607;50.934;6.934;2022-07-17T02:21:34;16.70;93.60
5176;DHT22;2607;50.934;6.934;2022-07-17T02:24:00;16.70;93.80
5176;DHT22;2607;50.934;6.934;2022-07-17T02:26:26;16.70;94.00
5176;DHT22;2607;50.934;6.934;2022-07-17T02:28:51;16.60;94.10
5176;DHT22;2607;50.934;6.934;2022-07-17T02:31:17;16.60;94.20
5176;DHT22;2607;50.934;6.934;2022-07-17T02:33:42;16.60;94.30
5176;DHT22;2607;50.934;6.934;2022-07-17T02:36:08;16.60;94.20
5176;DHT22;2607;50.934;6.934;2022-07-17T02:38:34;16.60;94.20
5176;DHT22;2607;50.934;6.934;2022-07-17T02:40:59;16.60;94.40
5176;DHT22;2607;50.934;6.934;2022-07-17T02:43:25;16.60;94.40
5176;DHT22;2607;50.934;6.934;2022-07-17T02:45:51;16.60;94.40
5176;DHT22;2607;50.934;6.934;2022-07-17T02:48:16;16.60;94.50
5176;DHT22;2607;50.934;6.934;2022-07-17T02:50:42;16.60;94.60
5176;DHT22;2607;50.934;6.934;2022-07-17T02:53:08;16.60;94.70
5176;DHT22;2607;50.934;6.934;2022-07-17T02:55:33;16.60;94.70
5176;DHT22;2607;50.934;6.934;2022-07-17T02:57:59;16.60;94.90
5176;DHT22;2607;50.934;6.934;2022-07-17T03:00:24;16.60;95.20
5176;DHT22;2607;50.934;6.934;2022-07-17T03:02:52;16.50;95.10
5176;DHT22;2607;50.934;6.934;2022-07-17T03:05:18;16.50;95.20
5176;DHT22;2607;50.934;6.934;2022-07-17T03:07:44;16.50;95.40
5176;DHT22;2607;50.934;6.934;2022-07-17T03:10:10;16.40;95.40
5176;DHT22;2607;50.934;6.934;2022-07-17T03:12:36;16.50;95.50
5176;DHT22;2607;50.934;6.934;2022-07-17T03:15:02;16.50;95.60
5176;DHT22;2607;50.934;6.934;2022-07-17T03:17:28;16.50;95.70
5176;DHT22;2607;50.934;6.934;2022-07-17T03:19:54;16.50;95.80
5176;DHT22;2607;50.934;6.934;2022-07-17T03:22:19;16.50;95.80
5176;DHT22;2607;50.934;6.934;2022-07-17T03:24:45;16.50;95.90
5176;DHT22;2607;50.934;6.934;2022-07-17T03:27:10;16.50;95.80
5176;DHT22;2607;50.934;6.934;2022-07-17T03:29:36;16.50;95.90
5176;DHT22;2607;50.934;6.934;2022-07-17T03:32:02;16.50;96.20
5176;DHT22;2607;50.934;6.934;2022-07-17T03:34:27;16.40;96.00
5176;DHT22;2607;50.934;6.934;2022-07-17T03:36:53;16.40;96.00
5176;DHT22;2607;50.934;6.934;2022-07-17T03:39:18;16.40;96.10
5176;DHT22;2607;50.934;6.934;2022-07-17T03:41:44;16.40;96.30
5176;DHT22;2607;50.934;6.934;2022-07-17T03:44:10;16.50;96.70
5176;DHT22;2607;50.934;6.934;2022-07-17T03:46:35;16.40;96.90
5176;DHT22;2607;50.934;6.934;2022-07-17T03:49:01;16.50;97.10
5176;DHT22;2607;50.934;6.934;2022-07-17T03:51:27;16.50;97.30
5176;DHT22;2607;50.934;6.934;2022-07-17T03:53:52;16.50;97.40
5176;DHT22;2607;50.934;6.934;2022-07-17T03:56:18;16.60;97.50
5176;DHT22;2607;50.934;6.934;2022-07-17T03:58:44;16.60;97.50
5176;DHT22;2607;50.934;6.934;2022-07-17T04:01:10;16.60;97.60
5176;DHT22;2607;50.934;6.934;2022-07-17T04:03:35;16.60;97.50
5176;DHT22;2607;50.934;6.934;2022-07-17T04:06:01;16.60;97.40
5176;DHT22;2607;50.934;6.934;2022-07-17T04:08:27;16.60;97.50
5176;DHT22;2607;50.934;6.934;2022-07-17T04:10:52;16.60;97.60
5176;DHT22;2607;50.934;6.934;2022-07-17T04:13:18;16.60;97.70
5176;DHT22;2607;50.934;6.934;2022-07-17T04:15:44;16.50;97.70
5176;DHT22;2607;50.934;6.934;2022-07-17T04:18:22;16.50;97.80
5176;DHT22;2607;50.934;6.934;2022-07-17T04:20:49;16.50;98.00
5176;DHT22;2607;50.934;6.934;2022-07-17T04:23:15;16.50;98.20
5176;DHT22;2607;50.934;6.934;2022-07-17T04:25:41;16.40;98.30
5176;DHT22;2607;50.934;6.934;2022-07-17T04:28:08;16.40;98.30
5176;DHT22;2607;50.934;6.934;2022-07-17T04:30:34;16.40;97.90
5176;DHT22;2607;50.934;6.934;2022-07-17T04:33:00;16.30;97.80
5176;DHT22;2607;50.934;6.934;2022-07-17T04:35:26;16.30;97.70
5176;DHT22;2607;50.934;6.934;2022-07-17T04:37:52;16.20;97.70
5176;DHT22;2607;50.934;6.934;2022-07-17T04:40:17;16.20;97.80
5176;DHT22;2607;50.934;6.934;2022-07-17T04:42:43;16.20;98.00
5176;DHT22;2607;50.934;6.934;2022-07-17T04:45:09;16.20;97.90
5176;DHT22;2607;50.934;6.934;2022-07-17T04:47:34;16.20;97.70
5176;DHT22;2607;50.934;6.934;2022-07-17T04:50:00;16.20;97.70
5176;DHT22;2607;50.934;6.934;2022-07-17T04:52:26;16.10;97.60
5176;DHT22;2607;50.934;6.934;2022-07-17T04:54:52;16.10;97.60
5176;DHT22;2607;50.934;6.934;2022-07-17T04:57:17;16.10;97.70
5176;DHT22;2607;50.934;6.934;2022-07-17T04:59:43;16.00;97.80
5176;DHT22;2607;50.934;6.934;2022-07-17T05:02:09;16.00;98.00
5176;DHT22;2607;50.934;6.934;2022-07-17T05:04:34;16.00;98.10
5176;DHT22;2607;50.934;6.934;2022-07-17T05:07:00;15.90;98.10
5176;DHT22;2607;50.934;6.934;2022-07-17T05:09:25;16.00;98.20
5176;DHT22;2607;50.934;6.934;2022-07-17T05:11:51;16.00;98.20
5176;DHT22;2607;50.934;6.934;2022-07-17T05:14:17;15.90;98.20
5176;DHT22;2607;50.934;6.934;2022-07-17T05:16:42;15.90;98.30
5176;DHT22;2607;50.934;6.934;2022-07-17T05:19:08;15.90;98.40
5176;DHT22;2607;50.934;6.934;2022-07-17T05:21:33;16.00;98.60
5176;DHT22;2607;50.934;6.934;2022-07-17T05:23:59;15.90;98.50
5176;DHT22;2607;50.934;6.934;2022-07-17T05:26:25;15.90;98.50
5176;DHT22;2607;50.934;6.934;2022-07-17T05:28:50;16.00;98.60
5176;DHT22;2607;50.934;6.934;2022-07-17T05:31:16;15.90;98.60
5176;DHT22;2607;50.934;6.934;2022-07-17T05:33:42;16.00;98.60
5176;DHT22;2607;50.934;6.934;2022-07-17T05:36:07;15.90;98.60
5176;DHT22;2607;50.934;6.934;2022-07-17T05:38:33;16.00;98.60
5176;DHT22;2607;50.934;6.934;2022-07-17T05:40:59;15.90;98.60
5176;DHT22;2607;50.934;6.934;2022-07-17T05:43:25;16.00;98.70
5176;DHT22;2607;50.934;6.934;2022-07-17T05:45:56;16.00;98.70
5176;DHT22;2607;50.934;6.934;2022-07-17T05:48:22;16.00;99.10
5176;DHT22;2607;50.934;6.934;2022-07-17T05:50:48;16.00;99.00
5176;DHT22;2607;50.934;6.934;2022-07-17T05:53:14;16.10;99.00
5176;DHT22;2607;50.934;6.934;2022-07-17T05:55:40;16.10;98.90
5176;DHT22;2607;50.934;6.934;2022-07-17T05:58:06;16.20;99.10
5176;DHT22;2607;50.934;6.934;2022-07-17T06:00:32;16.20;99.30
5176;DHT22;2607;50.934;6.934;2022-07-17T06:02:57;16.30;99.00
5176;DHT22;2607;50.934;6.934;2022-07-17T06:05:23;16.30;98.90
5176;DHT22;2607;50.934;6.934;2022-07-17T06:07:49;16.30;98.70
5176;DHT22;2607;50.934;6.934;2022-07-17T06:10:14;16.30;98.50
5176;DHT22;2607;50.934;6.934;2022-07-17T06:12:40;16.30;98.40
5176;DHT22;2607;50.934;6.934;2022-07-17T06:15:06;16.30;98.40
5176;DHT22;2607;50.934;6.934;2022-07-17T06:17:31;16.40;98.50
5176;DHT22;2607;50.934;6.934;2022-07-17T06:19:57;16.40;98.60
5176;DHT22;2607;50.934;6.934;2022-07-17T06:22:22;16.40;98.40
5176;DHT22;2607;50.934;6.934;2022-07-17T06:24:48;16.40;98.30
5176;DHT22;2607;50.934;6.934;2022-07-17T06:27:14;16.50;98.20
5176;DHT22;2607;50.934;6.934;2022-07-17T06:29:40;16.50;98.20
5176;DHT22;2607;50.934;6.934;2022-07-17T06:32:06;16.60;98.30
5176;DHT22;2607;50.934;6.934;2022-07-17T06:34:31;16.60;98.50
5176;DHT22;2607;50.934;6.934;2022-07-17T06:36:57;16.70;98.30
5176;DHT22;2607;50.934;6.934;2022-07-17T06:39:22;16.70;98.10
5176;DHT22;2607;50.934;6.934;2022-07-17T06:41:48;16.80;98.10
5176;DHT22;2607;50.934;6.934;2022-07-17T06:44:14;16.80;98.20
5176;DHT22;2607;50.934;6.934;2022-07-17T06:46:39;16.90;97.60
5176;DHT22;2607;50.934;6.934;2022-07-17T06:49:05;17.00;97.30
5176;DHT22;2607;50.934;6.934;2022-07-17T06:51:30;17.00;97.00
5176;DHT22;2607;50.934;6.934;2022-07-17T06:53:56;17.00;96.90
5176;DHT22;2607;50.934;6.934;2022-07-17T06:56:22;17.10;97.10
5176;DHT22;2607;50.934;6.934;2022-07-17T06:58:47;17.10;96.90
5176;DHT22;2607;50.934;6.934;2022-07-17T07:01:13;17.10;96.50
5176;DHT22;2607;50.934;6.934;2022-07-17T07:03:38;17.20;97.30
5176;DHT22;2607;50.934;6.934;2022-07-17T07:06:04;17.30;96.40
5176;DHT22;2607;50.934;6.934;2022-07-17T07:08:30;17.30;95.70
5176;DHT22;2607;50.934;6.934;2022-07-17T07:10:55;17.40;95.50
5176;DHT22;2607;50.934;6.934;2022-07-17T07:13:21;17.40;95.20
5176;DHT22;2607;50.934;6.934;2022-07-17T07:15:46;17.50;95.20
5176;DHT22;2607;50.934;6.934;2022-07-17T07:18:12;17.50;95.50
5176;DHT22;2607;50.934;6.934;2022-07-17T07:20:38;17.60;95.80
5176;DHT22;2607;50.934;6.934;2022-07-17T07:23:03;17.60;95.20
5176;DHT22;2607;50.934;6.934;2022-07-17T07:25:29;17.70;95.20
5176;DHT22;2607;50.934;6.934;2022-07-17T07:27:54;17.80;94.90
5176;DHT22;2607;50.934;6.934;2022-07-17T07:30:20;17.90;94.90
5176;DHT22;2607;50.934;6.934;2022-07-17T07:32:45;17.90;94.40
5176;DHT22;2607;50.934;6.934;2022-07-17T07:35:11;17.90;94.20
5176;DHT22;2607;50.934;6.934;2022-07-17T07:37:37;18.00;94.30
5176;DHT22;2607;50.934;6.934;2022-07-17T07:40:04;18.00;94.10
5176;DHT22;2607;50.934;6.934;2022-07-17T07:42:30;18.10;93.80
5176;DHT22;2607;50.934;6.934;2022-07-17T07:44:55;18.10;93.70
5176;DHT22;2607;50.934;6.934;2022-07-17T07:47:21;18.20;93.90
5176;DHT22;2607;50.934;6.934;2022-07-17T07:49:46;18.30;93.60
5176;DHT22;2607;50.934;6.934;2022-07-17T07:52:12;18.30;93.30
5176;DHT22;2607;50.934;6.934;2022-07-17T07:54:38;18.40;93.10
5176;DHT22;2607;50.934;6.934;2022-07-17T07:57:03;18.40;92.80
5176;DHT22;2607;50.934;6.934;2022-07-17T07:59:31;18.50;92.90
5176;DHT22;2607;50.934;6.934;2022-07-17T08:02:00;18.60;92.70
5176;DHT22;2607;50.934;6.934;2022-07-17T08:04:26;18.70;92.70
5176;DHT22;2607;50.934;6.934;2022-07-17T08:06:52;18.70;92.60
5176;DHT22;2607;50.934;6.934;2022-07-17T08:09:18;18.80;92.80
5176;DHT22;2607;50.934;6.934;2022-07-17T08:11:44;18.90;92.60
5176;DHT22;2607;50.934;6.934;2022-07-17T08:14:09;19.00;92.30
5176;DHT22;2607;50.934;6.934;2022-07-17T08:16:35;19.10;92.10
5176;DHT22;2607;50.934;6.934;2022-07-17T08:19:01;19.20;91.60
5176;DHT22;2607;50.934;6.934;2022-07-17T08:21:26;19.30;91.30
5176;DHT22;2607;50.934;6.934;2022-07-17T08:23:52;19.30;91.40
5176;DHT22;2607;50.934;6.934;2022-07-17T08:26:17;19.40;91.20
5176;DHT22;2607;50.934;6.934;2022-07-17T08:28:43;19.40;91.00
5176;DHT22;2607;50.934;6.934;2022-07-17T08:31:09;19.40;90.70
5176;DHT22;2607;50.934;6.934;2022-07-17T08:33:35;19.60;90.80
5176;DHT22;2607;50.934;6.934;2022-07-17T08:36:00;19.60;90.10
5176;DHT22;2607;50.934;6.934;2022-07-17T08:38:26;19.70;89.90
5176;DHT22;2607;50.934;6.934;2022-07-17T08:40:52;19.70;90.00
5176;DHT22;2607;50.934;6.934;2022-07-17T08:43:19;19.80;89.40
5176;DHT22;2607;50.934;6.934;2022-07-17T08:45:45;19.80;88.10
5176;DHT22;2607;50.934;6.934;2022-07-17T08:48:14;19.90;88.00
5176;DHT22;2607;50.934;6.934;2022-07-17T08:50:42;20.00;87.10
5176;DHT22;2607;50.934;6.934;2022-07-17T08:53:08;20.00;86.50
5176;DHT22;2607;50.934;6.934;2022-07-17T08:55:34;20.10;86.10
5176;DHT22;2607;50.934;6.934;2022-07-17T08:58:00;20.10;85.20
5176;DHT22;2607;50.934;6.934;2022-07-17T09:00:27;20.20;84.60
5176;DHT22;2607;50.934;6.934;2022-07-17T09:05:24;20.30;83.40
5176;DHT22;2607;50.934;6.934;2022-07-17T09:07:51;20.40;83.00
5176;DHT22;2607;50.934;6.934;2022-07-17T09:10:16;20.40;82.30
5176;DHT22;2607;50.934;6.934;2022-07-17T09:12:42;20.50;81.20
5176;DHT22;2607;50.934;6.934;2022-07-17T09:15:19;20.60;82.70
5176;DHT22;2607;50.934;6.934;2022-07-17T09:17:49;20.70;82.80
5176;DHT22;2607;50.934;6.934;2022-07-17T09:20:15;20.70;81.80
5176;DHT22;2607;50.934;6.934;2022-07-17T09:22:42;20.80;80.50
5176;DHT22;2607;50.934;6.934;2022-07-17T09:25:08;20.90;80.60
5176;DHT22;2607;50.934;6.934;2022-07-17T09:27:34;21.00;80.20
5176;DHT22;2607;50.934;6.934;2022-07-17T09:30:01;21.10;79.10
5176;DHT22;2607;50.934;6.934;2022-07-17T09:32:31;21.20;78.60
5176;DHT22;2607;50.934;6.934;2022-07-17T09:34:58;21.30;78.60
5176;DHT22;2607;50.934;6.934;2022-07-17T09:37:29;21.40;77.90
5176;DHT22;2607;50.934;6.934;2022-07-17T09:39:56;21.50;77.00
5176;DHT22;2607;50.934;6.934;2022-07-17T09:42:29;21.60;76.10
5176;DHT22;2607;50.934;6.934;2022-07-17T09:44:56;21.70;75.20
5176;DHT22;2607;50.934;6.934;2022-07-17T09:47:23;21.80;74.60
5176;DHT22;2607;50.934;6.934;2022-07-17T09:49:52;21.80;74.10
5176;DHT22;2607;50.934;6.934;2022-07-17T09:52:19;21.90;74.10
5176;DHT22;2607;50.934;6.934;2022-07-17T09:54:47;22.00;75.80
5176;DHT22;2607;50.934;6.934;2022-07-17T09:57:14;22.20;75.30
5176;DHT22;2607;50.934;6.934;2022-07-17T09:59:40;22.30;74.70
5176;DHT22;2607;50.934;6.934;2022-07-17T10:02:06;22.50;72.90
5176;DHT22;2607;50.934;6.934;2022-07-17T10:04:32;22.60;70.70
5176;DHT22;2607;50.934;6.934;2022-07-17T10:06:59;22.70;72.50
5176;DHT22;2607;50.934;6.934;2022-07-17T10:09:25;22.70;71.60
5176;DHT22;2607;50.934;6.934;2022-07-17T10:11:51;22.80;71.20
5176;DHT22;2607;50.934;6.934;2022-07-17T10:14:17;22.90;70.20
5176;DHT22;2607;50.934;6.934;2022-07-17T10:16:44;22.90;69.40
5176;DHT22;2607;50.934;6.934;2022-07-17T10:19:24;23.00;70.00
5176;DHT22;2607;50.934;6.934;2022-07-17T10:21:57;23.00;68.80
5176;DHT22;2607;50.934;6.934;2022-07-17T10:24:24;23.10;69.20
5176;DHT22;2607;50.934;6.934;2022-07-17T10:26:49;23.30;68.20
5176;DHT22;2607;50.934;6.934;2022-07-17T10:29:35;23.30;68.00
5176;DHT22;2607;50.934;6.934;2022-07-17T10:32:08;23.40;67.50
5176;DHT22;2607;50.934;6.934;2022-07-17T10:34:43;23.40;66.80
5176;DHT22;2607;50.934;6.934;2022-07-17T10:37:22;23.50;67.80
5176;DHT22;2607;50.934;6.934;2022-07-17T10:45:41;23.80;66.70
5176;DHT22;2607;50.934;6.934;2022-07-17T10:48:12;23.90;65.40
5176;DHT22;2607;50.934;6.934;2022-07-17T10:50:47;23.90;65.70
5176;DHT22;2607;50.934;6.934;2022-07-17T10:53:20;24.00;64.30
5176;DHT22;2607;50.934;6.934;2022-07-17T10:55:48;24.10;63.50
5176;DHT22;2607;50.934;6.934;2022-07-17T11:00:40;24.10;60.60
5176;DHT22;2607;50.934;6.934;2022-07-17T11:03:12;24.10;60.70
5176;DHT22;2607;50.934;6.934;2022-07-17T11:05:39;24.10;60.30
5176;DHT22;2607;50.934;6.934;2022-07-17T11:08:05;24.10;60.30
5176;DHT22;2607;50.934;6.934;2022-07-17T11:10:35;24.10;59.80
5176;DHT22;2607;50.934;6.934;2022-07-17T11:13:12;24.20;58.30
5176;DHT22;2607;50.934;6.934;2022-07-17T11:15:45;24.20;58.20
5176;DHT22;2607;50.934;6.934;2022-07-17T11:18:19;24.30;57.90
5176;DHT22;2607;50.934;6.934;2022-07-17T11:21:05;24.30;57.90
5176;DHT22;2607;50.934;6.934;2022-07-17T11:23:33;24.50;58.10
5176;DHT22;2607;50.934;6.934;2022-07-17T11:26:02;24.50;58.20
5176;DHT22;2607;50.934;6.934;2022-07-17T11:31:05;24.70;58.50
5176;DHT22;2607;50.934;6.934;2022-07-17T11:33:46;24.80;58.90
5176;DHT22;2607;50.934;6.934;2022-07-17T11:36:12;25.00;58.00
5176;DHT22;2607;50.934;6.934;2022-07-17T11:38:41;25.10;57.10
5176;DHT22;2607;50.934;6.934;2022-07-17T11:41:07;25.20;56.90
5176;DHT22;2607;50.934;6.934;2022-07-17T11:43:41;25.30;57.20
5176;DHT22;2607;50.934;6.934;2022-07-17T11:46:08;25.40;58.20
5176;DHT22;2607;50.934;6.934;2022-07-17T11:48:34;25.50;57.60
5176;DHT22;2607;50.934;6.934;2022-07-17T11:51:00;25.70;56.90
5176;DHT22;2607;50.934;6.934;2022-07-17T11:53:38;25.80;55.40
5176;DHT22;2607;50.934;6.934;2022-07-17T11:56:04;25.90;55.20
5176;DHT22;2607;50.934;6.934;2022-07-17T11:58:42;25.90;54.90
5176;DHT22;2607;50.934;6.934;2022-07-17T12:01:08;26.00;55.40
5176;DHT22;2607;50.934;6.934;2022-07-17T12:03:34;26.00;54.90
5176;DHT22;2607;50.934;6.934;2022-07-17T12:06:00;26.10;55.10
5176;DHT22;2607;50.934;6.934;2022-07-17T12:08:25;26.20;54.50
5176;DHT22;2607;50.934;6.934;2022-07-17T12:11:02;26.30;54.10
5176;DHT22;2607;50.934;6.934;2022-07-17T12:13:39;26.40;54.20
5176;DHT22;2607;50.934;6.934;2022-07-17T12:16:19;26.50;53.50
5176;DHT22;2607;50.934;6.934;2022-07-17T12:21:22;26.70;52.10
5176;DHT22;2607;50.934;6.934;2022-07-17T12:23:57;26.70;52.60
5176;DHT22;2607;50.934;6.934;2022-07-17T12:26:24;26.80;53.30
5176;DHT22;2607;50.934;6.934;2022-07-17T12:28:49;26.90;51.80
5176;DHT22;2607;50.934;6.934;2022-07-17T12:31:15;27.00;50.80
5176;DHT22;2607;50.934;6.934;2022-07-17T12:33:41;27.10;51.20
5176;DHT22;2607;50.934;6.934;2022-07-17T12:36:07;27.10;51.30
5176;DHT22;2607;50.934;6.934;2022-07-17T12:38:33;27.20;50.70
5176;DHT22;2607;50.934;6.934;2022-07-17T12:40:58;27.30;52.30
5176;DHT22;2607;50.934;6.934;2022-07-17T12:43:25;27.30;51.10
5176;DHT22;2607;50.934;6.934;2022-07-17T12:45:51;27.40;51.50
5176;DHT22;2607;50.934;6.934;2022-07-17T12:48:16;27.40;49.70
5176;DHT22;2607;50.934;6.934;2022-07-17T12:50:42;27.40;49.00
5176;DHT22;2607;50.934;6.934;2022-07-17T12:53:08;27.30;49.50
5176;DHT22;2607;50.934;6.934;2022-07-17T12:55:34;27.20;48.90
5176;DHT22;2607;50.934;6.934;2022-07-17T12:58:02;27.20;50.10
5176;DHT22;2607;50.934;6.934;2022-07-17T13:00:27;27.30;49.40
5176;DHT22;2607;50.934;6.934;2022-07-17T13:02:53;27.30;49.30
5176;DHT22;2607;50.934;6.934;2022-07-17T13:05:19;27.20;50.20
5176;DHT22;2607;50.934;6.934;2022-07-17T13:07:45;27.10;50.30
5176;DHT22;2607;50.934;6.934;2022-07-17T13:10:11;27.10;51.10
5176;DHT22;2607;50.934;6.934;2022-07-17T13:12:36;27.20;51.70
5176;DHT22;2607;50.934;6.934;2022-07-17T13:15:03;27.20;52.40
5176;DHT22;2607;50.934;6.934;2022-07-17T13:17:29;27.20;50.60
5176;DHT22;2607;50.934;6.934;2022-07-17T13:19:54;27.30;49.90
5176;DHT22;2607;50.934;6.934;2022-07-17T13:22:20;27.40;49.70
5176;DHT22;2607;50.934;6.934;2022-07-17T13:24:46;27.30;49.50
5176;DHT22;2607;50.934;6.934;2022-07-17T13:27:11;27.30;48.00
5176;DHT22;2607;50.934;6.934;2022-07-17T13:29:37;27.20;48.50
5176;DHT22;2607;50.934;6.934;2022-07-17T13:32:04;27.20;48.60
5176;DHT22;2607;50.934;6.934;2022-07-17T13:34:29;27.20;49.50
5176;DHT22;2607;50.934;6.934;2022-07-17T13:36:55;27.20;48.40
5176;DHT22;2607;50.934;6.934;2022-07-17T13:39:22;27.10;47.70
5176;DHT22;2607;50.934;6.934;2022-07-17T13:41:48;27.10;49.00
5176;DHT22;2607;50.934;6.934;2022-07-17T13:44:14;27.20;49.60
5176;DHT22;2607;50.934;6.934;2022-07-17T13:46:39;27.20;48.70
5176;DHT22;2607;50.934;6.934;2022-07-17T13:49:05;27.20;49.30
5176;DHT22;2607;50.934;6.934;2022-07-17T13:51:31;27.30;49.10
5176;DHT22;2607;50.934;6.934;2022-07-17T13:53:57;27.20;49.50
5176;DHT22;2607;50.934;6.934;2022-07-17T13:56:23;27.30;47.90
5176;DHT22;2607;50.934;6.934;2022-07-17T13:58:49;27.20;47.00
5176;DHT22;2607;50.934;6.934;2022-07-17T14:01:15;27.20;48.50
5176;DHT22;2607;50.934;6.934;2022-07-17T14:03:41;27.20;46.60
5176;DHT22;2607;50.934;6.934;2022-07-17T14:06:06;27.10;47.30
5176;DHT22;2607;50.934;6.934;2022-07-17T14:08:33;27.10;47.70
5176;DHT22;2607;50.934;6.934;2022-07-17T14:10:59;27.10;48.00
5176;DHT22;2607;50.934;6.934;2022-07-17T14:13:25;27.10;48.20
5176;DHT22;2607;50.934;6.934;2022-07-17T14:15:51;27.10;48.40
5176;DHT22;2607;50.934;6.934;2022-07-17T14:18:16;27.10;49.50
5176;DHT22;2607;50.934;6.934;2022-07-17T14:20:42;27.10;48.00
5176;DHT22;2607;50.934;6.934;2022-07-17T14:23:08;27.10;47.20
5176;DHT22;2607;50.934;6.934;2022-07-17T14:25:34;27.10;49.80
5176;DHT22;2607;50.934;6.934;2022-07-17T14:27:59;27.10;51.30
5176;DHT22;2607;50.934;6.934;2022-07-17T14:30:25;27.20;49.10
5176;DHT22;2607;50.934;6.934;2022-07-17T14:32:51;27.20;48.00
5176;DHT22;2607;50.934;6.934;2022-07-17T14:35:17;27.20;49.50
5176;DHT22;2607;50.934;6.934;2022-07-17T14:37:43;27.20;49.00
5176;DHT22;2607;50.934;6.934;2022-07-17T14:40:11;27.10;50.10
5176;DHT22;2607;50.934;6.934;2022-07-17T14:42:37;27.10;49.70
5176;DHT22;2607;50.934;6.934;2022-07-17T14:45:03;27.10;51.30
5176;DHT22;2607;50.934;6.934;2022-07-17T14:47:28;27.10;50.40
5176;DHT22;2607;50.934;6.934;2022-07-17T14:49:54;27.10;49.40
5176;DHT22;2607;50.934;6.934;2022-07-17T14:52:19;27.10;50.20
5176;DHT22;2607;50.934;6.934;2022-07-17T14:54:45;27.10;50.40
5176;DHT22;2607;50.934;6.934;2022-07-17T14:57:11;27.10;49.90
5176;DHT22;2607;50.934;6.934;2022-07-17T14:59:36;27.00;50.40
5176;DHT22;2607;50.934;6.934;2022-07-17T15:02:02;27.00;48.40
5176;DHT22;2607;50.934;6.934;2022-07-17T15:04:28;27.00;50.60
5176;DHT22;2607;50.934;6.934;2022-07-17T15:06:53;26.90;50.90
5176;DHT22;2607;50.934;6.934;2022-07-17T15:09:19;26.90;52.10
5176;DHT22;2607;50.934;6.934;2022-07-17T15:11:46;26.90;49.80
5176;DHT22;2607;50.934;6.934;2022-07-17T15:14:11;26.90;50.50
5176;DHT22;2607;50.934;6.934;2022-07-17T15:16:37;26.90;50.50
5176;DHT22;2607;50.934;6.934;2022-07-17T15:19:02;26.90;49.80
5176;DHT22;2607;50.934;6.934;2022-07-17T15:21:28;27.00;51.20
5176;DHT22;2607;50.934;6.934;2022-07-17T15:23:54;26.90;51.20
5176;DHT22;2607;50.934;6.934;2022-07-17T15:26:19;26.90;53.00
5176;DHT22;2607;50.934;6.934;2022-07-17T15:28:45;26.90;52.20
5176;DHT22;2607;50.934;6.934;2022-07-17T15:31:10;26.90;52.30
5176;DHT22;2607;50.934;6.934;2022-07-17T15:33:36;26.90;52.30
5176;DHT22;2607;50.934;6.934;2022-07-17T15:36:07;26.90;51.60
5176;DHT22;2607;50.934;6.934;2022-07-17T15:38:32;26.90;52.30
5176;DHT22;2607;50.934;6.934;2022-07-17T15:40:58;26.80;52.60
5176;DHT22;2607;50.934;6.934;2022-07-17T15:43:24;26.80;52.80
5176;DHT22;2607;50.934;6.934;2022-07-17T15:45:49;26.80;53.40
5176;DHT22;2607;50.934;6.934;2022-07-17T15:48:15;26.70;52.20
5176;DHT22;2607;50.934;6.934;2022-07-17T15:50:40;26.70;53.60
5176;DHT22;2607;50.934;6.934;2022-07-17T15:53:06;26.70;54.80
5176;DHT22;2607;50.934;6.934;2022-07-17T15:55:31;26.70;53.80
5176;DHT22;2607;50.934;6.934;2022-07-17T15:57:57;26.60;54.40
5176;DHT22;2607;50.934;6.934;2022-07-17T16:00:22;26.60;55.00
5176;DHT22;2607;50.934;6.934;2022-07-17T16:02:48;26.60;54.50
5176;DHT22;2607;50.934;6.934;2022-07-17T16:05:14;26.50;53.60
5176;DHT22;2607;50.934;6.934;2022-07-17T16:07:39;26.50;52.70
5176;DHT22;2607;50.934;6.934;2022-07-17T16:10:05;26.50;52.80
5176;DHT22;2607;50.934;6.934;2022-07-17T16:12:31;26.40;53.70